sensor_id;sensor_type;location;lat;lon;timestamp;temperature;humidity
44982;DHT22;30716;41.740;-70.400;2023-02-28T00:00:22;24.00;33.80
44982;DHT22;30716;41.740;-70.400;2023-02-28T00:02:49;23.90;34.10
44982;DHT22;30716;41.740;-70.400;2023-02-28T00:05:18;23.90;34.30
44982;DHT22;30716;41.740;-70.400;2023-02-28T00:07:45;23.90;34.90
44982;DHT22;30716;41.740;-70.400;2023-02-28T00:10:15;23.90;34.30
44982;DHT22;30716;41.740;-70.400;2023-02-28T00:12:41;23.90;34.20
44982;DHT22;30716;41.740;-70.400;2023-02-28T00:15:10;23.90;34.50
44982;DHT22;30716;41.740;-70.400;2023-02-28T00:17:37;23.90;33.80
44982;DHT22;30716;41.740;-70.400;2023-02-28T00:20:05;23.90;34.20
44982;DHT22;30716;41.740;-70.400;2023-02-28T00:22:40;23.90;34.10
44982;DHT22;30716;41.740;-70.400;2023-02-28T00:25:08;23.90;33.90
44982;DHT22;30716;41.740;-70.400;2023-02-28T00:27:36;23.80;34.00
44982;DHT22;30716;41.740;-70.400;2023-02-28T00:30:03;23.80;33.50
44982;DHT22;30716;41.740;-70.400;2023-02-28T00:32:30;23.80;33.60
44982;DHT22;30716;41.740;-70.400;2023-02-28T00:34:56;23.80;33.60
44982;DHT22;30716;41.740;-70.400;2023-02-28T00:37:22;23.80;33.60
44982;DHT22;30716;41.740;-70.400;2023-02-28T00:39:49;23.80;34.10
44982;DHT22;30716;41.740;-70.400;2023-02-28T00:42:15;23.80;33.30
44982;DHT22;30716;41.740;-70.400;2023-02-28T00:44:41;23.90;33.40
44982;DHT22;30716;41.740;-70.400;2023-02-28T00:47:07;23.90;33.50
44982;DHT22;30716;41.740;-70.400;2023-02-28T00:49:34;23.90;33.40
44982;DHT22;30716;41.740;-70.400;2023-02-28T00:52:00;23.90;33.20
44982;DHT22;30716;41.740;-70.400;2023-02-28T00:54:26;23.90;33.60
44982;DHT22;30716;41.740;-70.400;2023-02-28T00:56:52;23.90;33.10
44982;DHT22;30716;41.740;-70.400;2023-02-28T00:59:19;23.90;33.00
44982;DHT22;30716;41.740;-70.400;2023-02-28T01:01:46;23.90;32.90
44982;DHT22;30716;41.740;-70.400;2023-02-28T01:04:13;23.90;32.80
44982;DHT22;30716;41.740;-70.400;2023-02-28T01:06:40;24.00;32.90
44982;DHT22;30716;41.740;-70.400;2023-02-28T01:09:07;24.00;32.90
44982;DHT22;30716;41.740;-70.400;2023-02-28T01:11:34;24.00;32.70
44982;DHT22;30716;41.740;-70.400;2023-02-28T01:14:01;24.00;32.60
44982;DHT22;30716;41.740;-70.400;2023-02-28T01:16:28;24.00;32.70
44982;DHT22;30716;41.740;-70.400;2023-02-28T01:18:54;24.10;32.70
44982;DHT22;30716;41.740;-70.400;2023-02-28T01:21:21;24.10;32.50
44982;DHT22;30716;41.740;-70.400;2023-02-28T01:23:48;24.10;32.50
44982;DHT22;30716;41.740;-70.400;2023-02-28T01:26:24;24.10;32.50
44982;DHT22;30716;41.740;-70.400;2023-02-28T01:28:52;24.10;32.60
44982;DHT22;30716;41.740;-70.400;2023-02-28T01:31:19;24.10;32.50
44982;DHT22;30716;41.740;-70.400;2023-02-28T01:33:46;24.20;32.50
44982;DHT22;30716;41.740;-70.400;2023-02-28T01:36:23;24.20;32.50
44982;DHT22;30716;41.740;-70.400;2023-02-28T01:38:50;24.20;32.50
44982;DHT22;30716;41.740;-70.400;2023-02-28T01:41:25;24.20;32.60
44982;DHT22;30716;41.740;-70.400;2023-02-28T01:46:19;24.10;32.50
44982;DHT22;30716;41.740;-70.400;2023-02-28T01:51:29;24.20;32.50
44982;DHT22;30716;41.740;-70.400;2023-02-28T01:54:03;24.20;32.40
44982;DHT22;30716;41.740;-70.400;2023-02-28T01:56:34;24.20;32.40
44982;DHT22;30716;41.740;-70.400;2023-02-28T01:59:01;24.10;32.40
44982;DHT22;30716;41.740;-70.400;2023-02-28T02:01:29;24.20;32.50
44982;DHT22;30716;41.740;-70.400;2023-02-28T02:04:00;24.10;32.40
44982;DHT22;30716;41.740;-70.400;2023-02-28T02:06:40;24.20;32.50
44982;DHT22;30716;41.740;-70.400;2023-02-28T02:09:08;24.20;32.50
44982;DHT22;30716;41.740;-70.400;2023-02-28T02:11:36;24.10;32.40
44982;DHT22;30716;41.740;-70.400;2023-02-28T02:14:23;24.10;32.40
44982;DHT22;30716;41.740;-70.400;2023-02-28T02:17:00;24.10;32.40
44982;DHT22;30716;41.740;-70.400;2023-02-28T02:19:46;24.10;32.40
44982;DHT22;30716;41.740;-70.400;2023-02-28T02:22:52;24.10;32.50
44982;DHT22;30716;41.740;-70.400;2023-02-28T02:28:34;24.10;32.70
44982;DHT22;30716;41.740;-70.400;2023-02-28T02:43:13;24.10;33.30
44982;DHT22;30716;41.740;-70.400;2023-02-28T02:45:35;24.10;33.00
44982;DHT22;30716;41.740;-70.400;2023-02-28T02:48:06;24.10;32.50
44982;DHT22;30716;41.740;-70.400;2023-02-28T02:50:38;24.10;32.40
44982;DHT22;30716;41.740;-70.400;2023-02-28T02:53:06;24.20;32.50
44982;DHT22;30716;41.740;-70.400;2023-02-28T02:55:36;24.20;32.20
44982;DHT22;30716;41.740;-70.400;2023-02-28T02:58:06;24.20;32.30
44982;DHT22;30716;41.740;-70.400;2023-02-28T03:00:37;24.20;32.20
44982;DHT22;30716;41.740;-70.400;2023-02-28T03:03:05;24.30;32.10
44982;DHT22;30716;41.740;-70.400;2023-02-28T03:05:39;24.30;32.20
44982;DHT22;30716;41.740;-70.400;2023-02-28T03:08:07;24.30;32.20
44982;DHT22;30716;41.740;-70.400;2023-02-28T03:10:37;24.30;32.10
44982;DHT22;30716;41.740;-70.400;2023-02-28T03:18:58;24.30;32.30
44982;DHT22;30716;41.740;-70.400;2023-02-28T03:24:19;24.30;32.30
44982;DHT22;30716;41.740;-70.400;2023-02-28T03:26:55;24.30;32.30
44982;DHT22;30716;41.740;-70.400;2023-02-28T03:30:00;24.30;32.30
44982;DHT22;30716;41.740;-70.400;2023-02-28T03:32:51;24.30;32.30
44982;DHT22;30716;41.740;-70.400;2023-02-28T03:35:24;24.30;32.20
44982;DHT22;30716;41.740;-70.400;2023-02-28T03:38:00;24.30;32.40
44982;DHT22;30716;41.740;-70.400;2023-02-28T03:40:33;24.30;32.40
44982;DHT22;30716;41.740;-70.400;2023-02-28T03:43:08;24.30;32.40
44982;DHT22;30716;41.740;-70.400;2023-02-28T03:45:38;24.30;32.50
44982;DHT22;30716;41.740;-70.400;2023-02-28T03:50:47;24.20;32.60
44982;DHT22;30716;41.740;-70.400;2023-02-28T03:53:15;24.20;32.90
44982;DHT22;30716;41.740;-70.400;2023-02-28T03:55:47;24.20;32.70
44982;DHT22;30716;41.740;-70.400;2023-02-28T04:01:22;24.20;32.70
44982;DHT22;30716;41.740;-70.400;2023-02-28T04:03:50;24.20;32.70
44982;DHT22;30716;41.740;-70.400;2023-02-28T04:06:21;24.20;32.60
44982;DHT22;30716;41.740;-70.400;2023-02-28T04:08:48;24.20;32.70
44982;DHT22;30716;41.740;-70.400;2023-02-28T04:11:50;24.20;32.70
44982;DHT22;30716;41.740;-70.400;2023-02-28T04:14:21;24.20;32.90
44982;DHT22;30716;41.740;-70.400;2023-02-28T04:16:47;24.20;32.90
44982;DHT22;30716;41.740;-70.400;2023-02-28T04:19:14;24.20;33.00
44982;DHT22;30716;41.740;-70.400;2023-02-28T04:21:46;24.20;32.90
44982;DHT22;30716;41.740;-70.400;2023-02-28T04:24:19;24.20;32.80
44982;DHT22;30716;41.740;-70.400;2023-02-28T04:26:48;24.20;33.00
44982;DHT22;30716;41.740;-70.400;2023-02-28T04:29:19;24.20;33.60
44982;DHT22;30716;41.740;-70.400;2023-02-28T04:31:46;24.20;32.90
44982;DHT22;30716;41.740;-70.400;2023-02-28T04:34:12;24.20;32.70
44982;DHT22;30716;41.740;-70.400;2023-02-28T04:36:39;24.20;32.80
44982;DHT22;30716;41.740;-70.400;2023-02-28T04:39:05;24.20;33.00
44982;DHT22;30716;41.740;-70.400;2023-02-28T04:41:31;24.20;32.90
44982;DHT22;30716;41.740;-70.400;2023-02-28T04:43:57;24.20;32.80
44982;DHT22;30716;41.740;-70.400;2023-02-28T04:46:24;24.20;32.80
44982;DHT22;30716;41.740;-70.400;2023-02-28T04:48:50;24.20;32.90
44982;DHT22;30716;41.740;-70.400;2023-02-28T04:51:18;24.30;33.00
44982;DHT22;30716;41.740;-70.400;2023-02-28T04:53:45;24.20;32.70
44982;DHT22;30716;41.740;-70.400;2023-02-28T04:56:14;24.20;32.60
44982;DHT22;30716;41.740;-70.400;2023-02-28T04:58:40;24.20;32.60
44982;DHT22;30716;41.740;-70.400;2023-02-28T05:03:52;24.20;32.50
44982;DHT22;30716;41.740;-70.400;2023-02-28T05:06:19;24.30;32.60
44982;DHT22;30716;41.740;-70.400;2023-02-28T05:08:46;24.30;32.70
44982;DHT22;30716;41.740;-70.400;2023-02-28T05:11:32;24.30;32.70
44982;DHT22;30716;41.740;-70.400;2023-02-28T05:14:04;24.30;32.70
44982;DHT22;30716;41.740;-70.400;2023-02-28T05:16:31;24.30;32.60
44982;DHT22;30716;41.740;-70.400;2023-02-28T05:18:58;24.30;32.60
44982;DHT22;30716;41.740;-70.400;2023-02-28T05:21:28;24.40;32.70
44982;DHT22;30716;41.740;-70.400;2023-02-28T05:23:55;24.40;32.80
44982;DHT22;30716;41.740;-70.400;2023-02-28T05:26:22;24.40;32.60
44982;DHT22;30716;41.740;-70.400;2023-02-28T05:28:48;24.40;32.70
44982;DHT22;30716;41.740;-70.400;2023-02-28T05:31:15;24.40;32.70
44982;DHT22;30716;41.740;-70.400;2023-02-28T05:33:41;24.40;32.50
44982;DHT22;30716;41.740;-70.400;2023-02-28T05:36:07;24.40;33.40
44982;DHT22;30716;41.740;-70.400;2023-02-28T05:38:34;24.40;32.50
44982;DHT22;30716;41.740;-70.400;2023-02-28T05:41:04;24.40;32.50
44982;DHT22;30716;41.740;-70.400;2023-02-28T05:43:30;24.40;32.60
44982;DHT22;30716;41.740;-70.400;2023-02-28T05:45:56;24.40;32.70
44982;DHT22;30716;41.740;-70.400;2023-02-28T05:48:22;24.40;32.50
44982;DHT22;30716;41.740;-70.400;2023-02-28T05:50:48;24.40;32.60
44982;DHT22;30716;41.740;-70.400;2023-02-28T05:53:15;24.40;32.60
44982;DHT22;30716;41.740;-70.400;2023-02-28T05:55:41;24.40;32.50
44982;DHT22;30716;41.740;-70.400;2023-02-28T05:58:07;24.40;32.60
44982;DHT22;30716;41.740;-70.400;2023-02-28T06:00:33;24.40;32.70
44982;DHT22;30716;41.740;-70.400;2023-02-28T06:03:00;24.50;32.50
44982;DHT22;30716;41.740;-70.400;2023-02-28T06:05:28;24.40;32.50
44982;DHT22;30716;41.740;-70.400;2023-02-28T06:07:54;24.40;32.20
44982;DHT22;30716;41.740;-70.400;2023-02-28T06:10:20;24.40;32.40
44982;DHT22;30716;41.740;-70.400;2023-02-28T06:12:46;24.40;32.50
44982;DHT22;30716;41.740;-70.400;2023-02-28T06:15:14;24.40;32.40
44982;DHT22;30716;41.740;-70.400;2023-02-28T06:17:41;24.40;32.50
44982;DHT22;30716;41.740;-70.400;2023-02-28T06:20:08;24.40;32.50
44982;DHT22;30716;41.740;-70.400;2023-02-28T06:22:36;24.40;32.50
44982;DHT22;30716;41.740;-70.400;2023-02-28T06:25:04;24.40;32.50
44982;DHT22;30716;41.740;-70.400;2023-02-28T06:27:31;24.40;32.50
44982;DHT22;30716;41.740;-70.400;2023-02-28T06:29:57;24.40;32.50
44982;DHT22;30716;41.740;-70.400;2023-02-28T06:32:24;24.40;32.50
44982;DHT22;30716;41.740;-70.400;2023-02-28T06:34:50;24.40;32.60
44982;DHT22;30716;41.740;-70.400;2023-02-28T06:37:17;24.40;32.70
44982;DHT22;30716;41.740;-70.400;2023-02-28T06:39:43;24.40;32.80
44982;DHT22;30716;41.740;-70.400;2023-02-28T06:42:10;24.40;32.60
44982;DHT22;30716;41.740;-70.400;2023-02-28T06:44:36;24.40;32.70
44982;DHT22;30716;41.740;-70.400;2023-02-28T06:47:04;24.40;32.60
44982;DHT22;30716;41.740;-70.400;2023-02-28T06:49:34;24.40;32.50
44982;DHT22;30716;41.740;-70.400;2023-02-28T06:52:01;24.40;32.20
44982;DHT22;30716;41.740;-70.400;2023-02-28T06:54:27;24.40;32.30
44982;DHT22;30716;41.740;-70.400;2023-02-28T06:56:53;24.40;32.30
44982;DHT22;30716;41.740;-70.400;2023-02-28T06:59:22;24.50;32.20
44982;DHT22;30716;41.740;-70.400;2023-02-28T07:01:48;24.50;32.30
44982;DHT22;30716;41.740;-70.400;2023-02-28T07:04:15;24.50;32.20
44982;DHT22;30716;41.740;-70.400;2023-02-28T07:06:41;24.50;32.20
44982;DHT22;30716;41.740;-70.400;2023-02-28T07:09:07;24.50;32.10
44982;DHT22;30716;41.740;-70.400;2023-02-28T07:11:33;24.50;32.20
44982;DHT22;30716;41.740;-70.400;2023-02-28T07:14:00;24.50;32.30
44982;DHT22;30716;41.740;-70.400;2023-02-28T07:16:26;24.50;32.10
44982;DHT22;30716;41.740;-70.400;2023-02-28T07:18:53;24.50;32.40
44982;DHT22;30716;41.740;-70.400;2023-02-28T07:21:19;24.50;32.50
44982;DHT22;30716;41.740;-70.400;2023-02-28T07:23:45;24.50;32.40
44982;DHT22;30716;41.740;-70.400;2023-02-28T07:26:16;24.50;32.40
44982;DHT22;30716;41.740;-70.400;2023-02-28T07:28:44;24.50;32.30
44982;DHT22;30716;41.740;-70.400;2023-02-28T07:31:11;24.50;32.20
44982;DHT22;30716;41.740;-70.400;2023-02-28T07:33:38;24.50;32.40
44982;DHT22;30716;41.740;-70.400;2023-02-28T07:36:06;24.50;32.40
44982;DHT22;30716;41.740;-70.400;2023-02-28T07:38:35;24.50;32.70
44982;DHT22;30716;41.740;-70.400;2023-02-28T07:41:02;24.40;32.50
44982;DHT22;30716;41.740;-70.400;2023-02-28T07:43:32;24.40;32.70
44982;DHT22;30716;41.740;-70.400;2023-02-28T07:46:04;24.40;32.70
44982;DHT22;30716;41.740;-70.400;2023-02-28T07:48:30;24.40;32.60
44982;DHT22;30716;41.740;-70.400;2023-02-28T07:50:57;24.40;32.70
44982;DHT22;30716;41.740;-70.400;2023-02-28T07:53:24;24.40;32.70
44982;DHT22;30716;41.740;-70.400;2023-02-28T07:55:51;24.40;32.70
44982;DHT22;30716;41.740;-70.400;2023-02-28T07:58:20;24.40;32.60
44982;DHT22;30716;41.740;-70.400;2023-02-28T08:00:46;24.40;32.80
44982;DHT22;30716;41.740;-70.400;2023-02-28T08:03:12;24.40;32.80
44982;DHT22;30716;41.740;-70.400;2023-02-28T08:05:42;24.40;32.80
44982;DHT22;30716;41.740;-70.400;2023-02-28T08:08:08;24.40;32.80
44982;DHT22;30716;41.740;-70.400;2023-02-28T08:10:34;24.40;32.90
44982;DHT22;30716;41.740;-70.400;2023-02-28T08:13:01;24.40;32.90
44982;DHT22;30716;41.740;-70.400;2023-02-28T08:15:27;24.40;33.00
44982;DHT22;30716;41.740;-70.400;2023-02-28T08:17:53;24.40;33.00
44982;DHT22;30716;41.740;-70.400;2023-02-28T08:20:22;24.40;33.20
44982;DHT22;30716;41.740;-70.400;2023-02-28T08:22:49;24.40;33.00
44982;DHT22;30716;41.740;-70.400;2023-02-28T08:25:15;24.30;33.20
44982;DHT22;30716;41.740;-70.400;2023-02-28T08:27:42;24.30;33.30
44982;DHT22;30716;41.740;-70.400;2023-02-28T08:30:11;24.30;33.10
44982;DHT22;30716;41.740;-70.400;2023-02-28T08:32:38;24.30;33.20
44982;DHT22;30716;41.740;-70.400;2023-02-28T08:35:05;24.30;33.40
44982;DHT22;30716;41.740;-70.400;2023-02-28T08:37:31;24.20;33.00
44982;DHT22;30716;41.740;-70.400;2023-02-28T08:39:57;24.20;33.10
44982;DHT22;30716;41.740;-70.400;2023-02-28T08:42:24;24.20;33.00
44982;DHT22;30716;41.740;-70.400;2023-02-28T08:44:50;24.20;33.10
44982;DHT22;30716;41.740;-70.400;2023-02-28T08:47:17;24.20;33.00
44982;DHT22;30716;41.740;-70.400;2023-02-28T08:49:43;24.20;33.10
44982;DHT22;30716;41.740;-70.400;2023-02-28T08:52:09;24.20;33.10
44982;DHT22;30716;41.740;-70.400;2023-02-28T08:54:35;24.20;33.20
44982;DHT22;30716;41.740;-70.400;2023-02-28T08:57:03;24.20;33.10
44982;DHT22;30716;41.740;-70.400;2023-02-28T08:59:29;24.20;32.90
44982;DHT22;30716;41.740;-70.400;2023-02-28T09:01:55;24.20;32.90
44982;DHT22;30716;41.740;-70.400;2023-02-28T09:04:22;24.30;32.80
44982;DHT22;30716;41.740;-70.400;2023-02-28T09:06:48;24.30;32.70
44982;DHT22;30716;41.740;-70.400;2023-02-28T09:09:15;24.30;32.50
44982;DHT22;30716;41.740;-70.400;2023-02-28T09:11:41;24.40;32.50
44982;DHT22;30716;41.740;-70.400;2023-02-28T09:14:08;24.40;32.70
44982;DHT22;30716;41.740;-70.400;2023-02-28T09:16:34;24.40;32.50
44982;DHT22;30716;41.740;-70.400;2023-02-28T09:19:01;24.40;32.40
44982;DHT22;30716;41.740;-70.400;2023-02-28T09:21:27;24.40;32.60
44982;DHT22;30716;41.740;-70.400;2023-02-28T09:23:53;24.40;32.50
44982;DHT22;30716;41.740;-70.400;2023-02-28T09:26:25;24.40;32.70
44982;DHT22;30716;41.740;-70.400;2023-02-28T09:28:52;24.40;32.70
44982;DHT22;30716;41.740;-70.400;2023-02-28T09:31:24;24.40;32.60
44982;DHT22;30716;41.740;-70.400;2023-02-28T09:33:54;24.40;32.50
44982;DHT22;30716;41.740;-70.400;2023-02-28T09:36:21;24.40;32.80
44982;DHT22;30716;41.740;-70.400;2023-02-28T09:38:47;24.40;32.70
44982;DHT22;30716;41.740;-70.400;2023-02-28T09:41:20;24.40;32.60
44982;DHT22;30716;41.740;-70.400;2023-02-28T09:43:50;24.40;32.50
44982;DHT22;30716;41.740;-70.400;2023-02-28T09:46:40;24.40;32.60
44982;DHT22;30716;41.740;-70.400;2023-02-28T09:49:17;24.40;33.00
44982;DHT22;30716;41.740;-70.400;2023-02-28T09:51:49;24.40;32.80
44982;DHT22;30716;41.740;-70.400;2023-02-28T09:54:23;24.40;32.70
44982;DHT22;30716;41.740;-70.400;2023-02-28T09:57:01;24.40;32.80
44982;DHT22;30716;41.740;-70.400;2023-02-28T10:05:16;24.40;32.80
44982;DHT22;30716;41.740;-70.400;2023-02-28T10:10:53;24.40;32.80
44982;DHT22;30716;41.740;-70.400;2023-02-28T10:19:26;24.40;33.20
44982;DHT22;30716;41.740;-70.400;2023-02-28T10:22:20;24.30;33.30
44982;DHT22;30716;41.740;-70.400;2023-02-28T10:24:50;24.30;33.10
44982;DHT22;30716;41.740;-70.400;2023-02-28T10:27:22;24.30;33.20
44982;DHT22;30716;41.740;-70.400;2023-02-28T10:29:53;24.30;33.10
44982;DHT22;30716;41.740;-70.400;2023-02-28T10:32:40;24.30;33.10
44982;DHT22;30716;41.740;-70.400;2023-02-28T10:35:20;24.30;33.00
44982;DHT22;30716;41.740;-70.400;2023-02-28T10:37:58;24.30;33.20
44982;DHT22;30716;41.740;-70.400;2023-02-28T10:43:01;24.30;32.90
44982;DHT22;30716;41.740;-70.400;2023-02-28T10:45:37;24.40;33.10
44982;DHT22;30716;41.740;-70.400;2023-02-28T10:50:51;24.40;32.70
44982;DHT22;30716;41.740;-70.400;2023-02-28T10:58:42;24.40;32.70
44982;DHT22;30716;41.740;-70.400;2023-02-28T11:01:19;24.40;32.80
44982;DHT22;30716;41.740;-70.400;2023-02-28T11:03:46;24.40;32.70
44982;DHT22;30716;41.740;-70.400;2023-02-28T11:06:29;24.40;32.70
44982;DHT22;30716;41.740;-70.400;2023-02-28T11:08:58;24.50;32.70
44982;DHT22;30716;41.740;-70.400;2023-02-28T11:11:26;24.50;32.80
44982;DHT22;30716;41.740;-70.400;2023-02-28T11:13:56;24.40;32.80
44982;DHT22;30716;41.740;-70.400;2023-02-28T11:16:33;24.40;33.60
44982;DHT22;30716;41.740;-70.400;2023-02-28T11:19:01;24.40;32.80
44982;DHT22;30716;41.740;-70.400;2023-02-28T11:21:31;24.40;32.80
44982;DHT22;30716;41.740;-70.400;2023-02-28T11:24:04;24.40;32.70
44982;DHT22;30716;41.740;-70.400;2023-02-28T11:26:49;24.40;32.80
44982;DHT22;30716;41.740;-70.400;2023-02-28T11:29:28;24.40;32.70
44982;DHT22;30716;41.740;-70.400;2023-02-28T11:32:16;24.40;32.70
44982;DHT22;30716;41.740;-70.400;2023-02-28T11:34:43;24.40;32.80
44982;DHT22;30716;41.740;-70.400;2023-02-28T11:37:13;24.40;32.90
44982;DHT22;30716;41.740;-70.400;2023-02-28T11:39:40;24.40;32.90
44982;DHT22;30716;41.740;-70.400;2023-02-28T11:45:49;24.40;32.80
44982;DHT22;30716;41.740;-70.400;2023-02-28T11:48:32;24.40;32.90
44982;DHT22;30716;41.740;-70.400;2023-02-28T11:54:01;24.30;33.70
44982;DHT22;30716;41.740;-70.400;2023-02-28T11:56:47;24.30;32.80
44982;DHT22;30716;41.740;-70.400;2023-02-28T11:59:35;24.30;33.00
44982;DHT22;30716;41.740;-70.400;2023-02-28T12:07:40;24.30;33.00
44982;DHT22;30716;41.740;-70.400;2023-02-28T12:10:28;24.30;33.70
44982;DHT22;30716;41.740;-70.400;2023-02-28T12:13:01;24.30;32.90
44982;DHT22;30716;41.740;-70.400;2023-02-28T12:24:25;24.30;33.20
44982;DHT22;30716;41.740;-70.400;2023-02-28T12:26:53;24.20;33.20
44982;DHT22;30716;41.740;-70.400;2023-02-28T12:29:28;24.20;33.10
44982;DHT22;30716;41.740;-70.400;2023-02-28T12:32:52;24.30;33.00
44982;DHT22;30716;41.740;-70.400;2023-02-28T12:37:44;24.30;32.80
44982;DHT22;30716;41.740;-70.400;2023-02-28T12:40:22;24.30;32.90
44982;DHT22;30716;41.740;-70.400;2023-02-28T12:42:55;24.30;32.70
44982;DHT22;30716;41.740;-70.400;2023-02-28T12:45:25;24.40;32.80
44982;DHT22;30716;41.740;-70.400;2023-02-28T12:48:02;24.40;32.90
44982;DHT22;30716;41.740;-70.400;2023-02-28T12:50:33;24.40;32.90
44982;DHT22;30716;41.740;-70.400;2023-02-28T12:53:12;24.40;32.80
44982;DHT22;30716;41.740;-70.400;2023-02-28T13:04:24;24.40;33.00
44982;DHT22;30716;41.740;-70.400;2023-02-28T13:09:38;24.30;32.90
44982;DHT22;30716;41.740;-70.400;2023-02-28T13:12:16;24.30;32.80
44982;DHT22;30716;41.740;-70.400;2023-02-28T13:14:42;24.30;32.70
44982;DHT22;30716;41.740;-70.400;2023-02-28T13:19:46;24.30;32.90
44982;DHT22;30716;41.740;-70.400;2023-02-28T13:24:55;24.30;33.10
44982;DHT22;30716;41.740;-70.400;2023-02-28T13:27:38;24.20;33.10
44982;DHT22;30716;41.740;-70.400;2023-02-28T13:38:37;24.20;33.10
44982;DHT22;30716;41.740;-70.400;2023-02-28T13:49:20;24.30;33.20
44982;DHT22;30716;41.740;-70.400;2023-02-28T13:54:58;24.30;33.10
44982;DHT22;30716;41.740;-70.400;2023-02-28T13:57:47;24.30;33.10
44982;DHT22;30716;41.740;-70.400;2023-02-28T14:03:23;24.30;33.20
44982;DHT22;30716;41.740;-70.400;2023-02-28T14:08:55;24.30;33.10
44982;DHT22;30716;41.740;-70.400;2023-02-28T14:11:30;24.20;33.10
44982;DHT22;30716;41.740;-70.400;2023-02-28T14:13:57;24.20;32.90
44982;DHT22;30716;41.740;-70.400;2023-02-28T14:16:35;24.30;33.10
44982;DHT22;30716;41.740;-70.400;2023-02-28T14:21:34;24.30;32.60
44982;DHT22;30716;41.740;-70.400;2023-02-28T14:24:38;24.40;32.80
44982;DHT22;30716;41.740;-70.400;2023-02-28T14:32:51;24.40;32.50
44982;DHT22;30716;41.740;-70.400;2023-02-28T14:38:23;24.50;32.70
44982;DHT22;30716;41.740;-70.400;2023-02-28T14:40:52;24.50;32.80
44982;DHT22;30716;41.740;-70.400;2023-02-28T14:43:26;24.50;32.90
44982;DHT22;30716;41.740;-70.400;2023-02-28T14:45:58;24.50;33.10
44982;DHT22;30716;41.740;-70.400;2023-02-28T14:48:26;24.50;33.00
44982;DHT22;30716;41.740;-70.400;2023-02-28T14:50:58;24.50;33.00
44982;DHT22;30716;41.740;-70.400;2023-02-28T14:53:26;24.50;33.10
44982;DHT22;30716;41.740;-70.400;2023-02-28T14:55:53;24.50;33.10
44982;DHT22;30716;41.740;-70.400;2023-02-28T14:58:30;24.50;33.00
44982;DHT22;30716;41.740;-70.400;2023-02-28T15:01:00;24.50;32.80
44982;DHT22;30716;41.740;-70.400;2023-02-28T15:03:34;24.50;32.80
44982;DHT22;30716;41.740;-70.400;2023-02-28T15:06:06;24.50;32.80
44982;DHT22;30716;41.740;-70.400;2023-02-28T15:08:33;24.60;33.00
44982;DHT22;30716;41.740;-70.400;2023-02-28T15:11:05;24.50;32.90
44982;DHT22;30716;41.740;-70.400;2023-02-28T15:13:49;24.60;33.00
44982;DHT22;30716;41.740;-70.400;2023-02-28T15:16:29;24.60;33.10
44982;DHT22;30716;41.740;-70.400;2023-02-28T15:18:59;24.60;33.00
44982;DHT22;30716;41.740;-70.400;2023-02-28T15:21:31;24.60;33.20
44982;DHT22;30716;41.740;-70.400;2023-02-28T15:24:22;24.60;32.90
44982;DHT22;30716;41.740;-70.400;2023-02-28T15:26:57;24.60;32.90
44982;DHT22;30716;41.740;-70.400;2023-02-28T15:29:25;24.60;33.00
44982;DHT22;30716;41.740;-70.400;2023-02-28T15:32:04;24.60;33.30
44982;DHT22;30716;41.740;-70.400;2023-02-28T15:34:37;24.60;33.10
44982;DHT22;30716;41.740;-70.400;2023-02-28T15:40:15;24.60;33.10
44982;DHT22;30716;41.740;-70.400;2023-02-28T15:42:42;24.60;33.00
44982;DHT22;30716;41.740;-70.400;2023-02-28T15:45:28;24.60;33.10
44982;DHT22;30716;41.740;-70.400;2023-02-28T15:47:57;24.60;33.10
44982;DHT22;30716;41.740;-70.400;2023-02-28T15:50:24;24.50;33.00
44982;DHT22;30716;41.740;-70.400;2023-02-28T15:52:53;24.50;33.20
44982;DHT22;30716;41.740;-70.400;2023-02-28T15:55:20;24.60;33.30
44982;DHT22;30716;41.740;-70.400;2023-02-28T15:57:50;24.50;33.20
44982;DHT22;30716;41.740;-70.400;2023-02-28T16:00:22;24.50;33.10
44982;DHT22;30716;41.740;-70.400;2023-02-28T16:02:49;24.60;33.30
44982;DHT22;30716;41.740;-70.400;2023-02-28T16:07:55;24.50;33.30
44982;DHT22;30716;41.740;-70.400;2023-02-28T16:10:22;24.50;33.10
44982;DHT22;30716;41.740;-70.400;2023-02-28T16:12:53;24.60;33.10
44982;DHT22;30716;41.740;-70.400;2023-02-28T16:15:26;24.50;33.20
44982;DHT22;30716;41.740;-70.400;2023-02-28T16:17:54;24.50;33.20
44982;DHT22;30716;41.740;-70.400;2023-02-28T16:20:29;24.60;33.50
44982;DHT22;30716;41.740;-70.400;2023-02-28T16:22:56;24.50;33.30
44982;DHT22;30716;41.740;-70.400;2023-02-28T16:25:40;24.50;33.40
44982;DHT22;30716;41.740;-70.400;2023-02-28T16:28:25;24.50;33.40
44982;DHT22;30716;41.740;-70.400;2023-02-28T16:30:56;24.50;33.60
44982;DHT22;30716;41.740;-70.400;2023-02-28T16:33:23;24.50;33.40
44982;DHT22;30716;41.740;-70.400;2023-02-28T16:35:49;24.50;33.40
44982;DHT22;30716;41.740;-70.400;2023-02-28T16:38:15;24.50;33.50
44982;DHT22;30716;41.740;-70.400;2023-02-28T16:40:42;24.50;33.40
44982;DHT22;30716;41.740;-70.400;2023-02-28T16:43:15;24.50;33.50
44982;DHT22;30716;41.740;-70.400;2023-02-28T16:45:42;24.50;33.50
44982;DHT22;30716;41.740;-70.400;2023-02-28T16:48:13;24.50;33.50
44982;DHT22;30716;41.740;-70.400;2023-02-28T16:50:41;24.50;33.50
44982;DHT22;30716;41.740;-70.400;2023-02-28T16:53:08;24.50;33.80
44982;DHT22;30716;41.740;-70.400;2023-02-28T16:55:34;24.50;33.60
44982;DHT22;30716;41.740;-70.400;2023-02-28T16:58:01;24.50;34.70
44982;DHT22;30716;41.740;-70.400;2023-02-28T17:00:29;24.40;33.70
44982;DHT22;30716;41.740;-70.400;2023-02-28T17:02:57;24.40;33.90
44982;DHT22;30716;41.740;-70.400;2023-02-28T17:05:36;24.40;33.90
44982;DHT22;30716;41.740;-70.400;2023-02-28T17:08:04;24.40;34.00
44982;DHT22;30716;41.740;-70.400;2023-02-28T17:10:31;24.40;33.80
44982;DHT22;30716;41.740;-70.400;2023-02-28T17:12:57;24.30;33.90
44982;DHT22;30716;41.740;-70.400;2023-02-28T17:15:23;24.30;33.80
44982;DHT22;30716;41.740;-70.400;2023-02-28T17:17:52;24.30;34.20
44982;DHT22;30716;41.740;-70.400;2023-02-28T17:20:22;24.30;34.30
44982;DHT22;30716;41.740;-70.400;2023-02-28T17:22:49;24.20;34.40
44982;DHT22;30716;41.740;-70.400;2023-02-28T17:25:15;24.20;34.20
44982;DHT22;30716;41.740;-70.400;2023-02-28T17:27:42;24.20;34.30
44982;DHT22;30716;41.740;-70.400;2023-02-28T17:30:21;24.20;34.40
44982;DHT22;30716;41.740;-70.400;2023-02-28T17:32:47;24.20;34.20
44982;DHT22;30716;41.740;-70.400;2023-02-28T17:35:16;24.20;34.40
44982;DHT22;30716;41.740;-70.400;2023-02-28T17:37:42;24.20;34.60
44982;DHT22;30716;41.740;-70.400;2023-02-28T17:40:21;24.20;34.40
44982;DHT22;30716;41.740;-70.400;2023-02-28T17:42:48;24.20;34.70
44982;DHT22;30716;41.740;-70.400;2023-02-28T17:45:18;24.20;34.60
44982;DHT22;30716;41.740;-70.400;2023-02-28T17:47:47;24.20;34.70